createdAt,value
2023-05-13T00:02:25.006Z,46.32
2023-05-13T00:05:10.289Z,46.29
2023-05-13T00:07:56.385Z,46.34
2023-05-13T00:10:41.992Z,46.39
2023-05-13T00:13:27.442Z,46.16
2023-05-13T00:16:12.662Z,46.31
2023-05-13T00:18:58.025Z,46.17
2023-05-13T00:21:43.143Z,46.06
2023-05-13T00:24:28.739Z,46.01
2023-05-13T00:27:14.184Z,46.08
2023-05-13T00:30:00.070Z,46.15
2023-05-13T00:32:45.426Z,45.99
2023-05-13T00:35:31.024Z,46.02
2023-05-13T00:38:16.331Z,45.90
2023-05-13T00:41:03.050Z,46.06
2023-05-13T00:43:48.444Z,45.71
2023-05-13T00:46:34.427Z,45.91
2023-05-13T00:49:19.948Z,45.70
2023-05-13T00:52:05.881Z,45.50
2023-05-13T00:54:51.493Z,45.49
2023-05-13T00:57:38.291Z,45.44
2023-05-13T01:00:23.677Z,45.46
2023-05-13T01:03:19.164Z,45.45
2023-05-13T01:06:12.907Z,45.34
2023-05-13T01:09:14.652Z,45.08
2023-05-13T01:12:08.684Z,45.17
2023-05-13T01:15:25.625Z,45.24
2023-05-13T01:18:24.037Z,45.05
2023-05-13T01:21:11.628Z,45.08
2023-05-13T01:23:57.023Z,45.07
2023-05-13T01:26:43.556Z,44.98
2023-05-13T01:29:29.355Z,44.80
2023-05-13T01:32:16.127Z,44.77
2023-05-13T01:35:02.459Z,44.87
2023-05-13T01:37:50.447Z,44.87
2023-05-13T01:40:38.342Z,44.89
2023-05-13T01:43:26.034Z,44.65
2023-05-13T01:46:14.329Z,44.75
2023-05-13T01:49:00.147Z,44.87
2023-05-13T01:51:45.647Z,44.84
2023-05-13T01:54:30.986Z,44.60
2023-05-13T01:57:21.840Z,44.51
2023-05-13T02:00:08.141Z,44.64
2023-05-13T02:02:59.443Z,44.49
2023-05-13T02:05:46.684Z,44.44
2023-05-13T02:08:32.242Z,44.38
2023-05-13T02:14:03.107Z,44.15
2023-05-13T02:16:48.459Z,43.99
2023-05-13T02:22:19.621Z,43.89
2023-05-13T02:25:05.170Z,43.92
2023-05-13T02:27:51.182Z,43.92
2023-05-13T02:30:36.800Z,43.75
2023-05-13T02:33:22.415Z,43.87
2023-05-13T02:36:08.572Z,43.75
2023-05-13T02:38:55.681Z,43.76
2023-05-13T02:41:40.914Z,43.37
2023-05-13T02:44:26.159Z,43.67
2023-05-13T02:47:11.370Z,43.43
2023-05-13T02:49:56.975Z,43.42
2023-05-13T02:52:42.448Z,43.41
2023-05-13T02:55:27.829Z,43.37
2023-05-13T02:58:13.295Z,43.38
2023-05-13T03:00:58.866Z,43.37
2023-05-13T03:03:44.594Z,43.38
2023-05-13T03:06:29.665Z,43.17
2023-05-13T03:09:14.995Z,43.04
2023-05-13T03:12:00.505Z,43.24
2023-05-13T03:14:46.101Z,43.18
2023-05-13T03:17:32.143Z,43.23
2023-05-13T03:20:17.711Z,43.02
2023-05-13T03:23:03.281Z,42.93
2023-05-13T03:25:49.554Z,42.96
2023-05-13T03:28:34.869Z,42.91
2023-05-13T03:31:20.759Z,42.81
2023-05-13T03:34:06.307Z,42.73
2023-05-13T03:36:52.120Z,42.62
2023-05-13T03:39:37.956Z,42.80
2023-05-13T03:42:23.913Z,42.61
2023-05-13T03:45:11.589Z,42.60
2023-05-13T03:48:00.528Z,42.68
2023-05-13T03:50:46.411Z,42.49
2023-05-13T03:53:33.627Z,42.79
2023-05-13T03:56:19.516Z,42.54
2023-05-13T03:59:04.886Z,42.45
2023-05-13T04:01:50.249Z,42.47
2023-05-13T04:04:35.659Z,42.68
2023-05-13T04:07:20.945Z,42.51
2023-05-13T04:10:06.819Z,42.65
2023-05-13T04:12:52.182Z,42.60
2023-05-13T04:15:37.583Z,42.62
2023-05-13T04:18:24.316Z,42.79
2023-05-13T04:21:10.165Z,42.76
2023-05-13T04:23:55.532Z,42.73
2023-05-13T04:26:40.906Z,42.85
2023-05-13T04:29:26.734Z,42.84
2023-05-13T04:32:16.106Z,42.76
2023-05-13T04:35:01.973Z,43.05
2023-05-13T04:37:49.768Z,43.53
2023-05-13T04:40:38.300Z,43.95
2023-05-13T04:43:28.552Z,43.67
2023-05-13T04:46:16.458Z,43.94
2023-05-13T04:49:01.721Z,44.24
2023-05-13T04:51:47.636Z,44.03
2023-05-13T04:54:35.488Z,44.03
2023-05-13T04:57:20.764Z,44.30
2023-05-13T05:00:08.376Z,43.90
2023-05-13T05:02:56.792Z,44.17
2023-05-13T05:05:43.788Z,45.49
2023-05-13T05:08:33.374Z,44.04
2023-05-13T05:11:19.206Z,44.86
2023-05-13T05:14:05.060Z,45.22
2023-05-13T05:16:50.488Z,45.89
2023-05-13T05:19:36.543Z,46.67
2023-05-13T05:22:22.161Z,46.88
2023-05-13T05:25:09.718Z,46.76
2023-05-13T05:27:55.368Z,46.64
2023-05-13T05:30:41.242Z,46.75
2023-05-13T05:33:41.355Z,46.35
2023-05-13T05:36:28.619Z,46.35
2023-05-13T05:39:14.531Z,46.17
2023-05-13T05:42:00.395Z,46.24
2023-05-13T05:44:47.680Z,46.37
2023-05-13T05:47:33.038Z,46.57
2023-05-13T05:50:18.677Z,46.00
2023-05-13T05:53:04.667Z,46.62
2023-05-13T05:55:52.945Z,47.08
2023-05-13T05:58:39.291Z,46.92
2023-05-13T06:01:25.091Z,46.82
2023-05-13T06:04:10.999Z,46.89
2023-05-13T06:06:56.659Z,46.53
2023-05-13T06:09:41.904Z,46.65
2023-05-13T06:12:27.249Z,46.25
2023-05-13T06:15:12.688Z,46.27
2023-05-13T06:17:58.340Z,45.92
2023-05-13T06:20:44.115Z,45.83
2023-05-13T06:23:29.506Z,45.66
2023-05-13T06:26:14.841Z,45.73
2023-05-13T06:29:00.286Z,45.72
2023-05-13T06:31:45.754Z,45.87
2023-05-13T06:34:31.066Z,45.81
2023-05-13T06:37:17.510Z,45.90
2023-05-13T06:40:03.067Z,45.85
2023-05-13T06:45:54.634Z,45.31
2023-05-13T06:48:40.702Z,45.28
2023-05-13T06:51:30.648Z,45.30
2023-05-13T06:54:16.463Z,45.20
2023-05-13T06:57:02.353Z,45.64
2023-05-13T06:59:47.872Z,45.74
2023-05-13T07:02:33.595Z,45.96
2023-05-13T07:05:20.219Z,46.76
2023-05-13T07:08:07.107Z,46.43
2023-05-13T07:10:52.614Z,46.13
2023-05-13T07:13:38.225Z,46.21
2023-05-13T07:16:24.561Z,46.15
2023-05-13T07:19:10.429Z,45.87
2023-05-13T07:21:56.011Z,46.18
2023-05-13T07:24:41.851Z,46.17
2023-05-13T07:27:27.840Z,46.02
2023-05-13T07:30:13.924Z,46.05
2023-05-13T07:32:59.552Z,45.97
2023-05-13T07:35:45.034Z,45.97
2023-05-13T07:38:30.717Z,45.74
2023-05-13T07:41:16.230Z,45.85
2023-05-13T07:44:01.613Z,45.11
2023-05-13T07:46:47.634Z,44.91
2023-05-13T07:49:33.105Z,44.62
2023-05-13T07:52:18.553Z,44.59
2023-05-13T07:55:04.227Z,43.78
2023-05-13T07:57:49.856Z,42.72
2023-05-13T08:00:35.390Z,41.87
2023-05-13T08:03:20.674Z,42.05
2023-05-13T08:06:05.994Z,41.93
2023-05-13T08:08:51.180Z,41.96
2023-05-13T08:11:36.470Z,41.89
2023-05-13T08:14:21.839Z,41.55
2023-05-13T08:17:07.854Z,41.26
2023-05-13T08:19:53.172Z,41.27
2023-05-13T08:22:38.323Z,42.10
2023-05-13T08:25:23.840Z,41.44
2023-05-13T08:28:09.426Z,41.45
2023-05-13T08:30:55.184Z,41.04
2023-05-13T08:33:46.019Z,41.29
2023-05-13T08:36:31.373Z,41.52
2023-05-13T08:39:17.231Z,40.67
2023-05-13T08:42:04.565Z,40.64
2023-05-13T08:44:52.618Z,41.27
2023-05-13T08:47:38.164Z,40.85
2023-05-13T08:50:24.835Z,40.88
2023-05-13T08:53:11.485Z,40.59
2023-05-13T08:55:57.502Z,40.54
2023-05-13T08:58:42.963Z,40.79
2023-05-13T09:01:30.139Z,40.60
2023-05-13T09:04:15.694Z,40.63
2023-05-13T09:07:01.712Z,40.95
2023-05-13T09:09:47.702Z,41.34
2023-05-13T09:12:47.003Z,41.03
2023-05-13T09:15:33.128Z,40.91
2023-05-13T09:18:19.548Z,41.06
2023-05-13T09:21:25.186Z,40.77
2023-05-13T09:24:13.470Z,40.82
2023-05-13T09:27:03.154Z,41.16
2023-05-13T09:29:59.963Z,41.30
2023-05-13T09:32:45.170Z,41.61
2023-05-13T09:35:32.518Z,41.44
2023-05-13T09:38:20.145Z,41.45
2023-05-13T09:41:05.802Z,41.95
2023-05-13T09:43:51.644Z,42.22
2023-05-13T09:46:37.114Z,42.38
2023-05-13T09:49:24.473Z,42.57
2023-05-13T09:52:11.658Z,42.40
2023-05-13T09:54:58.636Z,41.65
2023-05-13T09:57:43.976Z,41.15
2023-05-13T10:00:32.987Z,41.15
2023-05-13T10:03:18.927Z,41.23
2023-05-13T10:06:05.490Z,41.26
2023-05-13T10:08:52.513Z,40.97
2023-05-13T10:11:38.085Z,40.52
2023-05-13T10:14:23.573Z,40.65
2023-05-13T10:17:09.554Z,40.88
2023-05-13T10:19:55.051Z,40.65
2023-05-13T10:22:40.825Z,40.69
2023-05-13T10:25:27.142Z,40.81
2023-05-13T10:28:14.767Z,40.36
2023-05-13T10:31:00.000Z,40.66
2023-05-13T10:33:46.002Z,40.66
2023-05-13T10:37:10.297Z,40.81
2023-05-13T10:40:01.424Z,41.26
2023-05-13T10:43:11.530Z,41.65
2023-05-13T10:46:02.204Z,41.02
2023-05-13T10:48:49.673Z,41.04
2023-05-13T10:51:35.094Z,41.05
2023-05-13T10:54:25.717Z,40.77
2023-05-13T10:57:13.488Z,40.94
2023-05-13T11:00:18.862Z,40.82
2023-05-13T11:03:19.780Z,41.72
2023-05-13T11:06:15.666Z,42.39
2023-05-13T11:09:01.476Z,43.86
2023-05-13T11:11:54.533Z,41.03
2023-05-13T11:14:44.711Z,40.83
2023-05-13T11:17:31.262Z,41.50
2023-05-13T11:20:18.430Z,41.39
2023-05-13T11:23:03.897Z,41.63
2023-05-13T11:26:17.288Z,41.31
2023-05-13T11:29:06.426Z,39.69
2023-05-13T11:31:53.131Z,41.73
2023-05-13T11:34:49.971Z,41.64
2023-05-13T11:37:42.817Z,39.91
2023-05-13T11:40:37.080Z,41.50
2023-05-13T11:43:22.788Z,39.82
2023-05-13T11:46:09.442Z,39.11
2023-05-13T11:48:54.524Z,39.40
2023-05-13T11:51:40.116Z,39.25
2023-05-13T11:54:25.857Z,39.05
2023-05-13T11:57:34.541Z,40.15
2023-05-13T12:00:28.299Z,39.71
2023-05-13T12:03:16.165Z,39.53
2023-05-13T12:06:05.707Z,39.79
2023-05-13T12:08:51.210Z,40.09
2023-05-13T12:11:37.384Z,41.09
2023-05-13T12:14:23.163Z,40.44
2023-05-13T12:17:08.870Z,40.16
2023-05-13T12:20:12.450Z,40.27
2023-05-13T12:22:58.249Z,41.08
2023-05-13T12:25:53.597Z,41.61
2023-05-13T12:28:38.998Z,42.04
2023-05-13T12:31:24.407Z,41.61
2023-05-13T12:34:10.122Z,42.02
2023-05-13T12:36:55.504Z,41.99
2023-05-13T12:39:42.170Z,42.04
2023-05-13T12:42:29.254Z,42.24
2023-05-13T12:45:14.733Z,42.11
2023-05-13T12:48:01.832Z,42.16
2023-05-13T12:50:47.930Z,42.27
2023-05-13T12:53:33.691Z,42.29
2023-05-13T12:56:18.998Z,42.26
2023-05-13T12:59:04.384Z,42.41
2023-05-13T13:01:49.957Z,42.37
2023-05-13T13:04:35.412Z,42.60
2023-05-13T13:07:20.995Z,42.45
2023-05-13T13:10:06.966Z,42.58
2023-05-13T13:12:52.268Z,42.39
2023-05-13T13:15:37.951Z,42.42
2023-05-13T13:18:24.613Z,42.24
2023-05-13T13:21:10.831Z,42.46
2023-05-13T13:23:56.229Z,42.65
2023-05-13T13:26:41.359Z,42.61
2023-05-13T13:29:26.670Z,42.48
2023-05-13T13:32:13.533Z,42.85
2023-05-13T13:34:59.190Z,42.83
2023-05-13T13:37:44.763Z,42.96
2023-05-13T13:40:30.179Z,43.04
2023-05-13T13:43:15.643Z,42.97
2023-05-13T13:46:01.044Z,42.99
2023-05-13T13:48:46.203Z,42.94
2023-05-13T13:51:32.054Z,43.16
2023-05-13T13:54:17.261Z,43.11
2023-05-13T13:57:02.618Z,43.42
2023-05-13T13:59:48.338Z,43.77
2023-05-13T14:02:33.833Z,43.66
2023-05-13T14:05:19.636Z,44.01
2023-05-13T14:08:05.334Z,43.79
2023-05-13T14:10:51.292Z,43.86
2023-05-13T14:13:36.699Z,43.96
2023-05-13T14:16:22.124Z,43.93
2023-05-13T14:19:07.443Z,44.47
2023-05-13T14:21:53.523Z,44.28
2023-05-13T14:24:39.011Z,44.63
2023-05-13T14:27:24.897Z,45.28
2023-05-13T14:30:10.437Z,44.91
2023-05-13T14:32:56.053Z,44.76
2023-05-13T14:35:41.776Z,44.74
2023-05-13T14:38:31.286Z,45.13
2023-05-13T14:41:19.967Z,44.93
2023-05-13T14:44:06.040Z,44.94
2023-05-13T14:46:51.794Z,45.37
2023-05-13T14:49:36.868Z,45.48
2023-05-13T14:52:22.270Z,46.12
2023-05-13T14:55:07.935Z,46.58
2023-05-13T14:57:54.555Z,46.91
2023-05-13T15:00:41.616Z,46.93
2023-05-13T15:03:26.865Z,46.80
2023-05-13T15:06:12.327Z,46.94
2023-05-13T15:08:58.335Z,47.13
2023-05-13T15:11:43.704Z,48.02
2023-05-13T15:14:29.239Z,48.49
2023-05-13T15:17:17.288Z,49.17
2023-05-13T15:20:03.017Z,49.66
2023-05-13T15:22:48.821Z,49.73
2023-05-13T15:25:34.708Z,49.92
2023-05-13T15:28:20.587Z,50.26
2023-05-13T15:31:08.199Z,49.67
2023-05-13T15:33:56.624Z,48.03
2023-05-13T15:36:42.175Z,48.30
2023-05-13T15:39:28.604Z,48.05
2023-05-13T15:42:14.052Z,47.53
2023-05-13T15:44:59.518Z,47.41
2023-05-13T15:47:45.057Z,47.37
2023-05-13T15:50:31.129Z,47.42
2023-05-13T15:53:17.235Z,48.69
2023-05-13T15:56:03.117Z,49.16
2023-05-13T15:58:50.023Z,49.49
2023-05-13T16:01:35.761Z,50.25
2023-05-13T16:04:22.562Z,50.02
2023-05-13T16:07:10.911Z,49.81
2023-05-13T16:09:56.379Z,49.47
2023-05-13T16:13:08.030Z,49.63
2023-05-13T16:15:54.248Z,49.40
2023-05-13T16:18:40.118Z,49.37
2023-05-13T16:21:25.725Z,49.19
2023-05-13T16:24:11.538Z,48.95
2023-05-13T16:26:57.314Z,49.04
2023-05-13T16:29:43.040Z,49.14
2023-05-13T16:32:30.024Z,49.00
2023-05-13T16:35:15.918Z,49.06
2023-05-13T16:38:01.541Z,48.86
2023-05-13T16:40:46.785Z,48.97
2023-05-13T16:43:32.399Z,48.83
2023-05-13T16:46:18.037Z,49.39
2023-05-13T16:49:03.236Z,48.98
2023-05-13T16:51:48.746Z,49.04
2023-05-13T16:54:34.449Z,49.14
2023-05-13T16:57:22.310Z,49.09
2023-05-13T17:00:08.508Z,49.33
2023-05-13T17:02:54.520Z,49.27
2023-05-13T17:05:40.318Z,49.03
2023-05-13T17:08:25.705Z,49.19
2023-05-13T17:11:18.078Z,49.25
2023-05-13T17:14:07.133Z,49.03
2023-05-13T17:16:54.588Z,48.88
2023-05-13T17:19:40.389Z,49.01
2023-05-13T17:22:25.897Z,49.28
2023-05-13T17:25:11.372Z,48.23
2023-05-13T17:27:56.689Z,48.70
2023-05-13T17:30:42.294Z,49.06
2023-05-13T17:33:28.380Z,49.04
2023-05-13T17:36:13.545Z,49.09
2023-05-13T17:38:59.523Z,48.55
2023-05-13T17:41:45.105Z,48.94
2023-05-13T17:44:30.418Z,49.51
2023-05-13T17:47:15.963Z,49.64
2023-05-13T17:50:01.559Z,49.37
2023-05-13T17:52:48.709Z,49.65
2023-05-13T17:55:34.355Z,49.64
2023-05-13T17:58:19.866Z,49.89
2023-05-13T18:01:05.091Z,49.73
2023-05-13T18:03:50.372Z,49.62
2023-05-13T18:06:36.563Z,49.56
2023-05-13T18:09:21.667Z,49.78
2023-05-13T18:12:07.314Z,49.52
2023-05-13T18:14:52.997Z,49.60
2023-05-13T18:17:38.389Z,49.16
2023-05-13T18:20:24.105Z,48.84
2023-05-13T18:23:09.833Z,48.71
2023-05-13T18:25:56.319Z,48.49
2023-05-13T18:28:44.920Z,48.70
2023-05-13T18:31:30.525Z,48.63
2023-05-13T18:34:15.774Z,49.00
2023-05-13T18:37:01.826Z,48.73
2023-05-13T18:39:47.345Z,48.85
2023-05-13T18:42:33.426Z,49.72
2023-05-13T18:45:18.917Z,49.64
2023-05-13T18:48:04.905Z,49.68
2023-05-13T18:50:51.528Z,49.46
2023-05-13T18:53:36.596Z,49.45
2023-05-13T18:56:22.375Z,49.39
2023-05-13T18:59:07.974Z,49.54
2023-05-13T19:01:53.262Z,49.54
2023-05-13T19:04:38.575Z,49.58
2023-05-13T19:07:23.817Z,49.49
2023-05-13T19:10:11.094Z,49.33
2023-05-13T19:12:56.536Z,49.46
2023-05-13T19:15:42.257Z,49.43
2023-05-13T19:18:28.360Z,49.08
2023-05-13T19:21:13.495Z,49.07
2023-05-13T19:23:58.888Z,48.84
2023-05-13T19:26:44.515Z,48.80
2023-05-13T19:29:29.852Z,48.62
2023-05-13T19:32:16.722Z,48.73
2023-05-13T19:35:03.747Z,48.53
2023-05-13T19:37:49.276Z,48.61
2023-05-13T19:40:34.731Z,48.69
2023-05-13T19:43:20.073Z,48.71
2023-05-13T19:46:05.674Z,48.43
2023-05-13T19:48:51.201Z,48.83
2023-05-13T19:51:36.490Z,49.42
2023-05-13T19:54:22.292Z,48.89
2023-05-13T19:57:07.817Z,49.20
2023-05-13T19:59:53.296Z,49.34
2023-05-13T20:02:39.124Z,49.16
2023-05-13T20:05:25.124Z,49.32
2023-05-13T20:08:10.817Z,49.27
2023-05-13T20:10:56.150Z,49.32
2023-05-13T20:13:41.648Z,48.97
2023-05-13T20:16:26.995Z,49.11
2023-05-13T20:19:12.220Z,49.26
2023-05-13T20:21:57.479Z,49.18
2023-05-13T20:24:43.398Z,49.13
2023-05-13T20:27:28.982Z,49.05
2023-05-13T20:30:16.414Z,49.23
2023-05-13T20:33:02.025Z,49.17
2023-05-13T20:35:47.503Z,49.14
2023-05-13T20:38:32.909Z,49.14
2023-05-13T20:41:18.472Z,49.21
2023-05-13T20:44:03.815Z,49.40
2023-05-13T20:46:49.733Z,49.67
2023-05-13T20:49:35.290Z,49.44
2023-05-13T20:52:20.638Z,49.65
2023-05-13T20:55:06.431Z,49.29
2023-05-13T20:57:51.710Z,49.36
2023-05-13T21:00:36.932Z,49.23
2023-05-13T21:03:22.646Z,49.30
2023-05-13T21:06:07.977Z,49.44
2023-05-13T21:08:53.347Z,49.37
2023-05-13T21:11:38.773Z,49.25
2023-05-13T21:14:24.085Z,49.14
2023-05-13T21:17:09.383Z,49.21
2023-05-13T21:19:54.605Z,49.12
2023-05-13T21:22:39.907Z,49.24
2023-05-13T21:25:25.079Z,48.96
2023-05-13T21:28:10.377Z,49.06
2023-05-13T21:30:55.533Z,49.11
2023-05-13T21:33:40.921Z,49.14
2023-05-13T21:36:26.354Z,49.47
2023-05-13T21:39:11.644Z,49.22
2023-05-13T21:41:59.994Z,48.97
2023-05-13T21:44:45.173Z,48.90
2023-05-13T21:47:30.530Z,48.94
2023-05-13T21:50:16.332Z,48.86
2023-05-13T21:53:01.826Z,48.84
2023-05-13T21:55:47.336Z,48.91
2023-05-13T21:58:33.182Z,49.01
2023-05-13T22:01:18.536Z,48.95
2023-05-13T22:04:03.934Z,48.83
2023-05-13T22:06:49.212Z,48.63
2023-05-13T22:09:34.611Z,48.85
2023-05-13T22:12:21.157Z,48.67
2023-05-13T22:15:07.470Z,48.60
2023-05-13T22:17:52.981Z,48.66
2023-05-13T22:20:38.622Z,48.71
2023-05-13T22:23:24.013Z,48.78
2023-05-13T22:26:09.597Z,48.83
2023-05-13T22:28:54.948Z,48.76
2023-05-13T22:31:40.630Z,48.69
2023-05-13T22:34:26.687Z,48.63
2023-05-13T22:37:11.952Z,48.71
2023-05-13T22:39:57.574Z,48.59
2023-05-13T22:42:43.211Z,48.96
2023-05-13T22:45:28.820Z,48.58
2023-05-13T22:48:15.103Z,49.43
2023-05-13T22:51:00.488Z,49.47
2023-05-13T22:53:46.021Z,49.18
2023-05-13T22:56:31.472Z,48.95
2023-05-13T22:59:16.827Z,48.71
2023-05-13T23:02:02.328Z,48.66
2023-05-13T23:04:47.507Z,48.90
2023-05-13T23:07:32.688Z,48.82
2023-05-13T23:10:17.951Z,48.94
2023-05-13T23:13:06.292Z,48.80
2023-05-13T23:15:51.728Z,48.88
2023-05-13T23:18:37.078Z,49.06
2023-05-13T23:21:22.272Z,48.94
2023-05-13T23:24:07.500Z,48.65
2023-05-13T23:26:52.802Z,48.99
2023-05-13T23:29:38.071Z,48.94
2023-05-13T23:32:24.029Z,49.15
2023-05-13T23:35:09.915Z,48.99
2023-05-13T23:37:55.548Z,49.20
2023-05-13T23:40:41.205Z,49.11
2023-05-13T23:43:26.440Z,49.12
2023-05-13T23:46:11.814Z,49.18
2023-05-13T23:48:57.091Z,49.19
2023-05-13T23:51:42.224Z,49.27
2023-05-13T23:54:27.491Z,49.12
2023-05-13T23:57:12.733Z,49.27
2023-05-13T23:59:57.900Z,49.34
